createdAt,value
2022-09-23T00:00:18.567Z,79.80
2022-09-23T00:03:29.105Z,79.80
2022-09-23T00:06:20.302Z,79.80
2022-09-23T00:09:10.258Z,79.90
2022-09-23T00:11:59.731Z,79.90
2022-09-23T00:14:48.211Z,79.80
2022-09-23T00:17:37.136Z,79.90
2022-09-23T00:20:26.072Z,79.90
2022-09-23T00:23:14.523Z,80.00
2022-09-23T00:26:06.514Z,79.90
2022-09-23T00:28:55.064Z,79.90
2022-09-23T00:31:43.917Z,79.90
2022-09-23T00:34:33.076Z,79.90
2022-09-23T00:37:22.415Z,79.90
2022-09-23T00:40:12.412Z,79.90
2022-09-23T00:43:02.291Z,79.90
2022-09-23T00:45:52.449Z,79.90
2022-09-23T00:48:42.804Z,79.90
2022-09-23T00:51:35.890Z,79.90
2022-09-23T00:54:27.879Z,79.90
2022-09-23T00:57:20.338Z,79.90
2022-09-23T01:00:11.146Z,79.90
2022-09-23T01:03:00.086Z,79.90
2022-09-23T01:05:48.834Z,79.90
2022-09-23T01:08:37.912Z,79.90
2022-09-23T01:11:34.220Z,79.90
2022-09-23T01:14:38.239Z,79.90
2022-09-23T01:17:35.768Z,80.00
2022-09-23T01:20:56.486Z,80.00
2022-09-23T01:24:33.783Z,80.00
2022-09-23T01:27:39.907Z,80.00
2022-09-23T01:30:47.286Z,79.90
2022-09-23T01:33:41.862Z,79.90
2022-09-23T01:36:39.430Z,80.00
2022-09-23T01:39:36.681Z,80.00
2022-09-23T01:42:30.678Z,79.90
2022-09-23T01:45:26.254Z,79.90
2022-09-23T01:48:22.231Z,80.00
2022-09-23T01:51:16.074Z,80.00
2022-09-23T01:54:11.072Z,80.00
2022-09-23T01:57:03.841Z,80.00
2022-09-23T01:59:57.015Z,80.00
2022-09-23T02:02:51.085Z,80.00
2022-09-23T02:05:45.819Z,80.00
2022-09-23T02:08:38.693Z,80.00
2022-09-23T02:11:27.571Z,80.00
2022-09-23T02:14:21.611Z,80.00
2022-09-23T02:17:13.125Z,80.00
2022-09-23T02:20:04.717Z,80.00
2022-09-23T02:23:01.626Z,80.00
2022-09-23T02:25:55.890Z,80.00
2022-09-23T02:28:52.937Z,80.10
2022-09-23T02:31:45.583Z,80.10
2022-09-23T02:34:45.247Z,80.10
2022-09-23T02:37:43.847Z,80.10
2022-09-23T02:40:38.990Z,80.10
2022-09-23T02:43:35.900Z,80.10
2022-09-23T02:46:24.555Z,80.20
2022-09-23T02:49:17.925Z,80.20
2022-09-23T02:52:07.870Z,80.20
2022-09-23T02:54:56.413Z,80.10
2022-09-23T02:57:47.051Z,80.20
2022-09-23T03:00:46.700Z,80.20
2022-09-23T03:03:43.019Z,80.20
2022-09-23T03:06:39.569Z,80.20
2022-09-23T03:09:32.278Z,80.30
2022-09-23T03:12:36.328Z,80.20
2022-09-23T03:15:33.421Z,80.30
2022-09-23T03:18:31.835Z,80.30
2022-09-23T03:21:26.443Z,80.30
2022-09-23T03:24:16.826Z,80.20
2022-09-23T03:27:08.315Z,80.30
2022-09-23T03:29:57.597Z,80.30
2022-09-23T03:32:48.301Z,80.30
2022-09-23T03:36:02.212Z,80.30
2022-09-23T03:38:52.835Z,80.30
2022-09-23T03:41:51.142Z,80.30
2022-09-23T03:44:39.713Z,80.40
2022-09-23T03:47:31.205Z,80.40
2022-09-23T03:50:20.919Z,80.40
2022-09-23T03:53:09.382Z,80.40
2022-09-23T03:55:58.219Z,80.40
2022-09-23T03:58:47.141Z,80.40
2022-09-23T04:01:35.539Z,80.50
2022-09-23T04:04:24.255Z,80.40
2022-09-23T04:07:14.201Z,80.40
2022-09-23T04:10:03.005Z,80.40
2022-09-23T04:12:50.772Z,80.40
2022-09-23T04:15:39.482Z,80.30
2022-09-23T04:18:27.509Z,80.30
2022-09-23T04:21:16.310Z,80.40
2022-09-23T04:24:06.468Z,80.40
2022-09-23T04:26:56.719Z,80.40
2022-09-23T04:29:44.721Z,80.40
2022-09-23T04:32:33.573Z,80.40
2022-09-23T04:35:21.422Z,80.40
2022-09-23T04:38:11.312Z,80.40
2022-09-23T04:41:00.562Z,80.50
2022-09-23T04:43:48.999Z,80.50
2022-09-23T04:46:39.327Z,80.50
2022-09-23T04:49:28.107Z,81.00
2022-09-23T04:52:16.457Z,80.50
2022-09-23T04:55:09.104Z,80.60
2022-09-23T04:58:00.770Z,80.70
2022-09-23T05:00:49.527Z,80.70
2022-09-23T05:03:37.746Z,80.70
2022-09-23T05:06:27.208Z,80.70
2022-09-23T05:09:17.922Z,80.70
2022-09-23T05:12:07.354Z,80.70
2022-09-23T05:14:56.967Z,80.70
2022-09-23T05:17:45.283Z,80.80
2022-09-23T05:20:33.531Z,80.80
2022-09-23T05:23:22.300Z,80.80
2022-09-23T05:26:12.051Z,80.80
2022-09-23T05:29:01.335Z,80.80
2022-09-23T05:31:50.956Z,80.80
2022-09-23T05:34:39.402Z,80.80
2022-09-23T05:37:27.393Z,80.80
2022-09-23T05:40:16.082Z,80.80
2022-09-23T05:43:04.133Z,80.90
2022-09-23T05:45:53.095Z,80.80
2022-09-23T05:48:43.955Z,80.80
2022-09-23T05:51:33.770Z,80.90
2022-09-23T05:54:21.721Z,80.90
2022-09-23T05:57:10.739Z,80.90
2022-09-23T05:59:58.621Z,80.90
2022-09-23T06:02:48.977Z,80.90
2022-09-23T06:05:38.378Z,81.00
2022-09-23T06:08:27.041Z,81.00
2022-09-23T06:11:15.671Z,81.00
2022-09-23T06:14:05.449Z,81.10
2022-09-23T06:16:53.589Z,81.10
2022-09-23T06:19:42.160Z,81.00
2022-09-23T06:22:33.184Z,81.50
2022-09-23T06:25:23.824Z,81.00
2022-09-23T06:28:12.240Z,81.10
2022-09-23T06:31:01.535Z,81.10
2022-09-23T06:33:54.445Z,81.10
2022-09-23T06:36:46.883Z,81.20
2022-09-23T06:39:36.236Z,81.20
2022-09-23T06:42:25.179Z,81.20
2022-09-23T06:45:15.446Z,81.30
2022-09-23T06:48:05.199Z,81.30
2022-09-23T06:50:53.831Z,81.30
2022-09-23T06:53:42.553Z,81.20
2022-09-23T06:56:36.336Z,81.20
2022-09-23T06:59:27.685Z,81.20
2022-09-23T07:02:15.894Z,81.20
2022-09-23T07:05:05.492Z,81.30
2022-09-23T07:07:54.695Z,81.30
2022-09-23T07:10:43.473Z,81.30
2022-09-23T07:13:34.410Z,81.30
2022-09-23T07:16:23.459Z,81.30
2022-09-23T07:19:12.184Z,81.80
2022-09-23T07:22:00.840Z,81.30
2022-09-23T07:24:48.899Z,81.20
2022-09-23T07:27:37.718Z,81.20
2022-09-23T07:30:27.249Z,81.70
2022-09-23T07:33:28.803Z,81.20
2022-09-23T07:36:21.136Z,81.20
2022-09-23T07:39:11.315Z,81.10
2022-09-23T07:41:59.909Z,81.10
2022-09-23T07:44:48.587Z,81.50
2022-09-23T07:47:39.490Z,81.10
2022-09-23T07:50:28.275Z,81.10
2022-09-23T07:53:16.308Z,81.20
2022-09-23T07:56:06.840Z,81.10
2022-09-23T07:59:01.848Z,81.10
2022-09-23T08:01:52.837Z,81.10
2022-09-23T08:04:42.676Z,81.10
2022-09-23T08:07:31.560Z,81.10
2022-09-23T08:10:21.137Z,81.20
2022-09-23T08:13:10.209Z,81.10
2022-09-23T08:15:58.863Z,81.20
2022-09-23T08:18:47.883Z,81.20
2022-09-23T08:21:39.401Z,81.20
2022-09-23T08:24:30.532Z,81.30
2022-09-23T08:27:18.579Z,81.30
2022-09-23T08:30:08.608Z,81.30
2022-09-23T08:32:56.843Z,81.30
2022-09-23T08:35:45.998Z,81.30
2022-09-23T08:38:36.009Z,81.30
2022-09-23T08:41:30.888Z,81.30
2022-09-23T08:44:21.394Z,81.30
2022-09-23T08:47:15.203Z,81.30
2022-09-23T08:50:09.191Z,81.40
2022-09-23T08:53:02.607Z,81.40
2022-09-23T08:55:55.145Z,81.40
2022-09-23T08:58:57.318Z,81.50
2022-09-23T09:01:47.488Z,82.00
2022-09-23T09:04:44.635Z,81.50
2022-09-23T09:07:37.074Z,81.50
2022-09-23T09:10:31.151Z,81.40
2022-09-23T09:13:31.047Z,81.40
2022-09-23T09:16:59.041Z,81.40
2022-09-23T09:19:55.946Z,81.40
2022-09-23T09:22:58.068Z,81.40
2022-09-23T09:25:47.560Z,81.30
2022-09-23T09:28:44.889Z,81.30
2022-09-23T09:31:36.565Z,81.40
2022-09-23T09:34:31.928Z,81.40
2022-09-23T09:37:26.350Z,81.40
2022-09-23T09:40:16.774Z,81.40
2022-09-23T09:43:05.673Z,81.40
2022-09-23T09:46:05.376Z,81.40
2022-09-23T09:48:59.827Z,81.40
2022-09-23T09:51:48.723Z,81.40
2022-09-23T09:54:37.300Z,81.40
2022-09-23T09:57:35.206Z,81.40
2022-09-23T10:00:45.747Z,81.40
2022-09-23T10:03:42.795Z,81.50
2022-09-23T10:06:33.601Z,81.50
2022-09-23T10:09:22.895Z,81.40
2022-09-23T10:12:15.753Z,81.40
2022-09-23T10:15:04.768Z,81.50
2022-09-23T10:17:52.672Z,81.40
2022-09-23T10:20:43.445Z,81.50
2022-09-23T10:23:33.446Z,81.50
2022-09-23T10:26:30.170Z,81.50
2022-09-23T10:29:26.049Z,81.50
2022-09-23T10:32:26.796Z,81.50
2022-09-23T10:35:17.305Z,81.50
2022-09-23T10:38:09.749Z,81.50
2022-09-23T10:41:15.842Z,81.60
2022-09-23T10:44:36.262Z,81.50
2022-09-23T10:47:35.021Z,81.60
2022-09-23T10:50:39.360Z,81.50
2022-09-23T10:53:42.132Z,81.50
2022-09-23T10:56:36.735Z,81.50
2022-09-23T10:59:45.206Z,81.50
2022-09-23T11:02:52.640Z,81.50
2022-09-23T11:05:47.427Z,81.50
2022-09-23T11:08:56.078Z,81.50
2022-09-23T11:11:56.619Z,81.50
2022-09-23T11:15:04.882Z,81.50
2022-09-23T11:18:23.011Z,82.00
2022-09-23T11:21:32.561Z,81.50
2022-09-23T11:24:52.449Z,81.50
2022-09-23T11:27:54.874Z,81.50
2022-09-23T11:30:53.250Z,81.50
2022-09-23T11:33:53.826Z,81.50
2022-09-23T11:36:47.062Z,81.50
2022-09-23T11:39:42.031Z,81.50
2022-09-23T11:42:35.632Z,81.60
2022-09-23T11:45:29.477Z,81.60
2022-09-23T11:48:23.159Z,81.60
2022-09-23T11:51:18.084Z,81.70
2022-09-23T11:54:14.407Z,81.60
2022-09-23T11:57:13.764Z,81.70
2022-09-23T12:00:05.552Z,81.70
2022-09-23T12:03:06.928Z,81.70
2022-09-23T12:06:01.537Z,81.60
2022-09-23T12:08:55.231Z,81.70
2022-09-23T12:11:51.759Z,81.80
2022-09-23T12:14:55.248Z,81.80
2022-09-23T12:18:02.002Z,81.80
2022-09-23T12:21:27.435Z,81.80
2022-09-23T12:24:46.112Z,81.80
2022-09-23T12:27:38.119Z,81.80
2022-09-23T12:30:31.484Z,81.80
2022-09-23T12:33:24.875Z,81.80
2022-09-23T12:36:13.803Z,81.90
2022-09-23T12:39:05.713Z,81.80
2022-09-23T12:41:59.368Z,81.80
2022-09-23T12:44:49.737Z,81.80
2022-09-23T12:47:41.117Z,81.80
2022-09-23T12:50:52.209Z,81.80
2022-09-23T12:53:57.954Z,81.80
2022-09-23T12:57:03.308Z,81.90
2022-09-23T12:59:57.384Z,81.90
2022-09-23T13:03:14.289Z,81.90
2022-09-23T13:06:20.638Z,81.90
2022-09-23T13:09:14.228Z,81.90
2022-09-23T13:12:05.346Z,81.90
2022-09-23T13:14:56.369Z,81.90
2022-09-23T13:17:44.524Z,81.90
2022-09-23T13:20:38.894Z,81.90
2022-09-23T13:23:28.220Z,81.90
2022-09-23T13:26:17.363Z,82.00
2022-09-23T13:29:06.982Z,82.00
2022-09-23T13:31:58.046Z,82.00
2022-09-23T13:34:53.735Z,81.90
2022-09-23T13:37:47.740Z,82.00
2022-09-23T13:40:37.525Z,82.00
2022-09-23T13:43:32.031Z,81.90
2022-09-23T13:46:23.021Z,81.90
2022-09-23T13:49:24.781Z,81.90
2022-09-23T13:52:25.355Z,81.90
2022-09-23T13:55:33.377Z,81.90
2022-09-23T13:58:24.069Z,81.90
2022-09-23T14:01:23.779Z,81.90
2022-09-23T14:04:25.497Z,81.90
2022-09-23T14:07:17.098Z,81.90
2022-09-23T14:10:08.272Z,81.90
2022-09-23T14:12:59.421Z,81.90
2022-09-23T14:15:48.660Z,81.90
2022-09-23T14:18:40.177Z,81.90
2022-09-23T14:21:34.012Z,82.00
2022-09-23T14:24:24.870Z,82.00
2022-09-23T14:27:16.752Z,81.90
2022-09-23T14:30:07.801Z,81.90
2022-09-23T14:32:56.655Z,81.90
2022-09-23T14:35:49.147Z,81.90
2022-09-23T14:38:51.493Z,81.90
2022-09-23T14:41:44.010Z,81.90
2022-09-23T14:44:35.275Z,81.90
2022-09-23T14:47:25.465Z,81.90
2022-09-23T14:50:35.811Z,81.90
2022-09-23T14:53:38.363Z,81.90
2022-09-23T14:56:26.886Z,81.90
2022-09-23T14:59:27.476Z,81.90
2022-09-23T15:02:34.869Z,81.90
2022-09-23T15:05:32.071Z,81.90
2022-09-23T15:08:23.079Z,82.40
2022-09-23T15:11:11.979Z,81.90
2022-09-23T15:14:19.669Z,81.90
2022-09-23T15:17:21.313Z,81.80
2022-09-23T15:20:21.192Z,81.90
2022-09-23T15:23:34.391Z,81.90
2022-09-23T15:26:25.256Z,81.90
2022-09-23T15:29:13.884Z,81.90
2022-09-23T15:32:02.481Z,81.90
2022-09-23T15:34:52.109Z,81.90
2022-09-23T15:37:41.707Z,81.90
2022-09-23T15:40:32.963Z,81.90
2022-09-23T15:43:23.390Z,81.90
2022-09-23T15:46:18.584Z,81.90
2022-09-23T15:49:12.903Z,81.90
2022-09-23T15:52:02.635Z,81.90
2022-09-23T15:54:53.570Z,82.00
2022-09-23T15:57:42.158Z,81.90
2022-09-23T16:00:30.392Z,81.90
2022-09-23T16:03:20.255Z,82.00
2022-09-23T16:06:13.560Z,81.90
2022-09-23T16:09:02.479Z,81.90
2022-09-23T16:11:53.044Z,81.90
2022-09-23T16:14:41.815Z,82.00
2022-09-23T16:17:29.730Z,82.00
2022-09-23T16:20:19.106Z,82.00
2022-09-23T16:23:12.152Z,82.00
2022-09-23T16:26:02.508Z,82.10
2022-09-23T16:28:55.201Z,82.00
2022-09-23T16:31:44.160Z,82.00
2022-09-23T16:34:34.261Z,82.00
2022-09-23T16:37:23.216Z,82.00
2022-09-23T16:40:11.637Z,82.10
2022-09-23T16:43:02.463Z,82.10
2022-09-23T16:45:52.117Z,82.10
2022-09-23T16:48:41.667Z,82.10
2022-09-23T16:51:38.075Z,82.10
2022-09-23T16:54:27.065Z,82.10
2022-09-23T16:57:15.386Z,82.10
2022-09-23T17:00:21.968Z,82.10
2022-09-23T17:03:31.063Z,82.20
2022-09-23T17:06:20.498Z,82.20
2022-09-23T17:09:08.789Z,82.20
2022-09-23T17:12:04.520Z,82.10
2022-09-23T17:14:53.390Z,82.20
2022-09-23T17:17:42.199Z,82.20
2022-09-23T17:20:32.172Z,82.20
2022-09-23T17:23:21.006Z,82.20
2022-09-23T17:26:10.122Z,82.30
2022-09-23T17:29:02.316Z,82.30
2022-09-23T17:31:50.584Z,82.20
2022-09-23T17:34:38.810Z,82.30
2022-09-23T17:37:28.478Z,82.30
2022-09-23T17:40:18.226Z,82.30
2022-09-23T17:43:06.346Z,82.30
2022-09-23T17:45:56.469Z,82.30
2022-09-23T17:48:45.997Z,82.30
2022-09-23T17:51:34.939Z,82.30
2022-09-23T17:54:24.636Z,82.40
2022-09-23T17:57:13.655Z,82.40
2022-09-23T18:00:02.213Z,82.40
2022-09-23T18:02:59.920Z,82.30
2022-09-23T18:05:48.016Z,82.90
2022-09-23T18:08:36.944Z,82.50
2022-09-23T18:11:28.384Z,82.40
2022-09-23T18:14:19.831Z,82.40
2022-09-23T18:17:08.021Z,82.30
2022-09-23T18:19:56.581Z,82.40
2022-09-23T18:22:45.055Z,82.40
2022-09-23T18:25:39.447Z,82.40
2022-09-23T18:28:34.885Z,82.30
2022-09-23T18:31:23.357Z,82.30
2022-09-23T18:34:14.265Z,82.40
2022-09-23T18:37:02.717Z,82.40
2022-09-23T18:39:51.095Z,82.40
2022-09-23T18:42:40.611Z,82.40
2022-09-23T18:45:30.135Z,82.40
2022-09-23T18:48:36.705Z,82.30
2022-09-23T18:51:28.346Z,82.40
2022-09-23T18:54:17.308Z,82.40
2022-09-23T18:57:05.880Z,82.50
2022-09-23T18:59:54.464Z,82.40
2022-09-23T19:02:44.395Z,82.50
2022-09-23T19:05:35.501Z,82.40
2022-09-23T19:08:24.107Z,82.50
2022-09-23T19:11:14.225Z,82.50
2022-09-23T19:14:02.354Z,82.40
2022-09-23T19:16:51.059Z,82.50
2022-09-23T19:19:41.038Z,82.40
2022-09-23T19:22:30.709Z,82.40
2022-09-23T19:25:19.201Z,82.40
2022-09-23T19:28:08.563Z,82.50
2022-09-23T19:30:57.502Z,82.50
2022-09-23T19:33:50.326Z,82.40
2022-09-23T19:36:42.280Z,82.40
2022-09-23T19:39:31.881Z,82.50
2022-09-23T19:42:20.363Z,82.50
2022-09-23T19:45:09.362Z,82.50
2022-09-23T19:47:57.663Z,82.50
2022-09-23T19:50:48.480Z,82.50
2022-09-23T19:53:38.615Z,82.50
2022-09-23T19:56:26.919Z,82.50
2022-09-23T19:59:18.720Z,82.50
2022-09-23T20:02:10.013Z,82.50
2022-09-23T20:04:58.370Z,82.50
2022-09-23T20:07:47.325Z,82.50
2022-09-23T20:10:39.857Z,82.60
2022-09-23T20:13:29.074Z,82.60
2022-09-23T20:16:19.686Z,82.60
2022-09-23T20:19:08.622Z,82.60
2022-09-23T20:22:10.889Z,82.60
2022-09-23T20:24:59.701Z,82.70
2022-09-23T20:27:53.510Z,82.70
2022-09-23T20:30:44.144Z,82.70
2022-09-23T20:33:32.195Z,82.70
2022-09-23T20:36:20.398Z,82.70
2022-09-23T20:39:10.137Z,82.70
2022-09-23T20:42:00.371Z,82.70
2022-09-23T20:44:50.166Z,82.70
2022-09-23T20:47:38.595Z,82.80
2022-09-23T20:50:27.082Z,82.70
2022-09-23T20:53:15.893Z,82.70
2022-09-23T20:56:05.968Z,82.70
2022-09-23T20:58:55.023Z,82.70
2022-09-23T21:01:45.424Z,82.70
2022-09-23T21:04:34.840Z,82.70
2022-09-23T21:07:23.904Z,82.80
2022-09-23T21:10:12.442Z,82.80
2022-09-23T21:13:00.753Z,83.40
2022-09-23T21:15:49.419Z,82.80
2022-09-23T21:18:39.553Z,82.80
2022-09-23T21:21:28.257Z,82.80
2022-09-23T21:24:51.094Z,82.80
2022-09-23T21:27:25.007Z,82.80
2022-09-23T21:30:14.214Z,82.80
2022-09-23T21:33:02.463Z,82.80
2022-09-23T21:35:55.404Z,82.80
2022-09-23T21:38:45.152Z,82.80
2022-09-23T21:41:33.644Z,82.80
2022-09-23T21:44:22.521Z,82.90
2022-09-23T21:47:10.693Z,82.90
2022-09-23T21:49:59.782Z,82.90
2022-09-23T21:52:50.516Z,82.90
2022-09-23T21:55:39.822Z,82.90
2022-09-23T21:58:28.823Z,82.80
2022-09-23T22:01:19.876Z,82.80
2022-09-23T22:04:13.310Z,82.80
2022-09-23T22:07:01.982Z,82.80
2022-09-23T22:09:51.506Z,82.80
2022-09-23T22:12:40.604Z,82.90
2022-09-23T22:15:29.499Z,82.80
2022-09-23T22:18:19.543Z,82.90
2022-09-23T22:21:07.753Z,82.80
2022-09-23T22:23:58.027Z,82.80
2022-09-23T22:26:47.708Z,82.90
2022-09-23T22:29:53.553Z,82.90
2022-09-23T22:32:41.722Z,82.90
2022-09-23T22:35:30.143Z,82.90
2022-09-23T22:38:19.095Z,82.80
2022-09-23T22:41:07.958Z,82.80
2022-09-23T22:43:58.826Z,82.90
2022-09-23T22:46:48.439Z,82.80
2022-09-23T22:49:36.608Z,83.40
2022-09-23T22:52:25.556Z,82.80
2022-09-23T22:55:13.972Z,82.80
2022-09-23T22:58:21.190Z,82.80
2022-09-23T23:01:12.195Z,82.90
2022-09-23T23:04:01.806Z,82.90
2022-09-23T23:06:50.462Z,82.90
2022-09-23T23:09:39.159Z,82.90
2022-09-23T23:12:27.453Z,82.90
2022-09-23T23:15:16.617Z,82.90
2022-09-23T23:18:07.015Z,82.80
2022-09-23T23:20:57.507Z,83.40
2022-09-23T23:23:48.142Z,82.80
2022-09-23T23:26:36.513Z,82.80
2022-09-23T23:29:25.013Z,82.80
2022-09-23T23:32:13.471Z,82.90
2022-09-23T23:35:03.069Z,82.90
2022-09-23T23:37:51.440Z,82.80
2022-09-23T23:40:40.007Z,82.90
2022-09-23T23:43:28.782Z,82.90
2022-09-23T23:46:18.294Z,82.90
2022-09-23T23:49:07.271Z,82.90
2022-09-23T23:51:56.548Z,82.90
2022-09-23T23:54:45.215Z,82.90
2022-09-23T23:57:33.241Z,83.00
